createdAt,value
2023-05-20T04:54:45.027Z,3.3
2023-05-20T05:00:31.697Z,3.1
2023-05-20T05:06:23.155Z,3
2023-05-20T05:12:13.325Z,3.4
2023-05-20T05:18:04.042Z,3.3
2023-05-20T05:24:01.907Z,3.6
2023-05-20T05:29:53.568Z,3.2
2023-05-20T05:35:44.305Z,3.6
2023-05-20T05:41:36.857Z,3.7
2023-05-20T05:47:27.756Z,3.5
2023-05-20T05:53:18.303Z,3.5
2023-05-20T05:59:26.682Z,3.8
2023-05-20T06:05:18.454Z,3.7
2023-05-20T06:11:17.233Z,3.9
2023-05-20T06:17:12.703Z,3.7
2023-05-20T06:23:04.774Z,4
2023-05-20T06:29:06.505Z,3.7
2023-05-20T06:35:25.443Z,3.7
2023-05-20T06:48:02.563Z,3.7
2023-05-20T06:54:30.187Z,3.7
2023-05-20T07:12:58.588Z,3.9
2023-05-20T07:31:51.286Z,4.2
2023-05-20T07:37:56.897Z,4.5
2023-05-20T07:51:00.161Z,4
2023-05-20T07:56:55.847Z,4.4
2023-05-20T08:02:59.789Z,4.4
2023-05-20T08:09:09.381Z,4
2023-05-20T08:15:27.338Z,4.2
2023-05-20T08:21:31.417Z,4.4
2023-05-20T08:53:57.015Z,4
2023-05-20T08:59:53.333Z,4.4
2023-05-20T09:06:07.702Z,4.3
2023-05-20T09:13:44.416Z,4.9
2023-05-20T09:19:54.255Z,4.2
2023-05-20T10:07:46.221Z,4.7
2023-05-20T10:13:33.630Z,4.8
2023-05-20T10:19:29.252Z,5.1
2023-05-20T10:25:19.358Z,5.2
2023-05-20T10:31:12.233Z,4.9
2023-05-20T10:37:07.026Z,4.7
2023-05-20T10:43:00.117Z,5.4
2023-05-20T10:49:03.934Z,5
2023-05-20T10:54:59.570Z,5.8
2023-05-20T11:00:53.936Z,5.4
2023-05-20T11:06:46.186Z,5.9
2023-05-20T11:12:38.674Z,5.2
2023-05-20T11:18:28.821Z,6
2023-05-20T11:24:21.209Z,5.6
2023-05-20T11:31:21.318Z,6
2023-05-20T11:37:15.124Z,5.9
2023-05-20T11:48:59.114Z,6.3
2023-05-20T11:57:13.632Z,6.4
2023-05-20T12:04:11.253Z,6.3
2023-05-20T12:10:03.054Z,6.3
2023-05-20T12:15:57.462Z,6
2023-05-20T12:21:49.198Z,5.9
2023-05-20T12:28:51.869Z,5.5
2023-05-20T12:34:42.648Z,5.8
2023-05-20T12:40:36.896Z,5.5
2023-05-20T12:51:06.779Z,5.6
2023-05-20T12:56:57.474Z,6
2023-05-20T13:02:51.976Z,6.2
2023-05-20T13:25:59.723Z,5.6
2023-05-20T13:32:11.551Z,5.5
2023-05-20T13:41:37.242Z,5.9
2023-05-20T13:48:33.924Z,5.9
2023-05-20T13:54:23.318Z,6.4
2023-05-20T14:00:15.477Z,6.3
2023-05-20T14:06:08.647Z,6.1
2023-05-20T14:20:05.584Z,6.5
2023-05-20T14:27:05.924Z,6.4
2023-05-20T14:34:06.416Z,6.4
2023-05-20T14:39:57.044Z,6.5
2023-05-20T14:45:50.155Z,6.8
2023-05-20T14:52:51.000Z,6.7
2023-05-20T14:58:43.983Z,6.9
2023-05-20T15:04:35.585Z,6.8
2023-05-20T15:10:28.079Z,6.9
2023-05-20T15:16:20.222Z,6.5
2023-05-20T15:22:12.153Z,6.6
2023-05-20T15:28:04.336Z,6.9
2023-05-20T15:38:37.946Z,7.4
2023-05-20T15:44:28.261Z,10.7
2023-05-20T15:50:21.355Z,6.5
2023-05-20T15:56:15.229Z,6.4
2023-05-20T16:02:06.800Z,6.4
2023-05-20T16:07:58.672Z,7
2023-05-20T16:16:08.925Z,6.7
2023-05-20T16:21:57.452Z,7.2
2023-05-20T16:27:51.073Z,6.8
2023-05-20T16:33:43.830Z,6.7
2023-05-20T16:39:36.466Z,7.6
2023-05-20T16:45:30.266Z,7.2
2023-05-20T16:51:22.690Z,11.5
2023-05-20T16:57:15.249Z,10.3
2023-05-20T17:03:06.221Z,7.9
2023-05-20T17:08:59.224Z,11.9
2023-05-20T17:14:52.893Z,7.7
2023-05-20T17:20:46.197Z,7.1
2023-05-20T17:26:37.501Z,6.8
2023-05-20T17:32:29.173Z,7.4
2023-05-20T17:38:20.119Z,6.4
2023-05-20T17:46:33.340Z,6.8
2023-05-20T17:52:23.730Z,6.4
2023-05-20T17:58:16.786Z,5.9
2023-05-20T18:04:10.326Z,6
2023-05-20T18:10:06.662Z,6.6
2023-05-20T18:16:02.615Z,6.5
2023-05-20T18:22:00.857Z,6.3
2023-05-20T18:27:52.326Z,6.8
2023-05-20T18:33:44.609Z,6.5
2023-05-20T18:39:41.678Z,6.7
2023-05-20T18:45:36.692Z,7
2023-05-20T18:51:41.325Z,6.6
2023-05-20T18:57:31.560Z,7.9
2023-05-20T19:03:23.250Z,8.1
2023-05-20T19:09:16.090Z,7.7
2023-05-20T19:15:07.994Z,8.2
2023-05-20T19:21:06.183Z,8
2023-05-20T19:27:04.940Z,7.9
2023-05-20T19:32:57.227Z,9.7
2023-05-20T19:38:56.042Z,9.5
2023-05-20T19:44:48.489Z,9
2023-05-20T19:50:52.324Z,8.8
2023-05-20T19:56:44.048Z,8.8
2023-05-20T20:02:41.048Z,8.8
2023-05-20T20:08:34.282Z,10.2
2023-05-20T20:14:28.544Z,10
2023-05-20T20:20:20.908Z,12.5
2023-05-20T20:26:17.856Z,9.3
2023-05-20T20:32:09.366Z,9.7
2023-05-20T20:38:02.179Z,10.6
2023-05-20T20:44:05.661Z,9.8
2023-05-20T20:49:59.813Z,10
2023-05-20T20:55:58.282Z,10.5
2023-05-20T21:01:50.247Z,10.8
2023-05-20T21:07:42.670Z,10.4
2023-05-20T21:13:39.549Z,11.7
2023-05-20T21:19:32.140Z,10
2023-05-20T21:25:23.238Z,10.9
2023-05-20T21:31:16.382Z,9.9
2023-05-20T21:37:08.941Z,10.3
2023-05-20T21:43:00.228Z,12.4
2023-05-20T21:49:03.723Z,12.1
2023-05-20T21:54:53.323Z,10.3
2023-05-20T22:00:48.272Z,10.4
2023-05-20T22:06:41.759Z,10.7
2023-05-20T22:12:33.330Z,11.5
2023-05-20T22:18:26.054Z,11.5
2023-05-20T22:24:21.098Z,11.7
2023-05-20T22:30:19.754Z,13.3
2023-05-20T22:36:16.057Z,11.8
2023-05-20T22:42:08.844Z,11.8
2023-05-20T22:48:00.650Z,11.1
2023-05-20T22:53:53.149Z,11.8
2023-05-20T22:59:45.608Z,11.2
2023-05-20T23:05:38.761Z,11.1
2023-05-20T23:11:32.511Z,11.4
2023-05-20T23:17:23.886Z,11.3
2023-05-20T23:23:32.542Z,11.6
2023-05-20T23:29:25.901Z,11.4
2023-05-20T23:35:17.626Z,11.3
2023-05-20T23:41:11.732Z,11.9
2023-05-20T23:47:02.712Z,12.3
2023-05-20T23:52:54.866Z,12.8
2023-05-20T23:58:47.127Z,13
